sensor_id;sensor_type;location;lat;lon;timestamp;pressure;altitude;pressure_sealevel;temperature;humidity
56038;BME280;41907;47.848;9.000;2023-05-27T00:00:49;96288.88;;;15.12;75.18
56038;BME280;41907;47.848;9.000;2023-05-27T00:03:15;96291.47;;;15.08;75.97
56038;BME280;41907;47.848;9.000;2023-05-27T00:05:40;96285.13;;;15.04;75.93
56038;BME280;41907;47.848;9.000;2023-05-27T00:08:05;96288.94;;;15.03;75.58
56038;BME280;41907;47.848;9.000;2023-05-27T00:10:31;96287.03;;;15.04;75.69
56038;BME280;41907;47.848;9.000;2023-05-27T00:12:56;96291.66;;;14.95;75.85
56038;BME280;41907;47.848;9.000;2023-05-27T00:15:21;96282.31;;;14.92;75.40
56038;BME280;41907;47.848;9.000;2023-05-27T00:17:46;96290.72;;;14.91;75.75
56038;BME280;41907;47.848;9.000;2023-05-27T00:20:12;96281.72;;;14.86;75.95
56038;BME280;41907;47.848;9.000;2023-05-27T00:22:37;96281.25;;;14.84;75.49
56038;BME280;41907;47.848;9.000;2023-05-27T00:25:03;96283.03;;;14.80;75.53
56038;BME280;41907;47.848;9.000;2023-05-27T00:27:28;96281.75;;;14.78;76.35
56038;BME280;41907;47.848;9.000;2023-05-27T00:29:53;96275.00;;;14.72;75.71
56038;BME280;41907;47.848;9.000;2023-05-27T00:32:19;96274.50;;;14.70;75.97
56038;BME280;41907;47.848;9.000;2023-05-27T00:34:44;96283.81;;;14.64;75.80
56038;BME280;41907;47.848;9.000;2023-05-27T00:37:09;96278.16;;;14.65;76.23
56038;BME280;41907;47.848;9.000;2023-05-27T00:39:34;96278.31;;;14.60;76.09
56038;BME280;41907;47.848;9.000;2023-05-27T00:42:00;96269.31;;;14.56;76.06
56038;BME280;41907;47.848;9.000;2023-05-27T00:44:25;96280.38;;;14.55;76.31
56038;BME280;41907;47.848;9.000;2023-05-27T00:46:51;96272.19;;;14.51;75.91
56038;BME280;41907;47.848;9.000;2023-05-27T00:49:16;96268.09;;;14.45;75.79
56038;BME280;41907;47.848;9.000;2023-05-27T00:51:42;96272.03;;;14.47;76.55
56038;BME280;41907;47.848;9.000;2023-05-27T00:54:07;96277.22;;;14.44;76.40
56038;BME280;41907;47.848;9.000;2023-05-27T00:56:33;96276.31;;;14.40;76.23
56038;BME280;41907;47.848;9.000;2023-05-27T00:58:58;96270.75;;;14.36;76.60
56038;BME280;41907;47.848;9.000;2023-05-27T01:01:24;96277.09;;;14.40;76.46
56038;BME280;41907;47.848;9.000;2023-05-27T01:03:50;96275.97;;;14.33;76.65
56038;BME280;41907;47.848;9.000;2023-05-27T01:06:27;96273.63;;;14.31;75.66
56038;BME280;41907;47.848;9.000;2023-05-27T01:08:59;96268.88;;;14.28;75.98
56038;BME280;41907;47.848;9.000;2023-05-27T01:11:37;96270.44;;;14.29;76.12
56038;BME280;41907;47.848;9.000;2023-05-27T01:14:04;96262.09;;;14.22;76.03
56038;BME280;41907;47.848;9.000;2023-05-27T01:16:32;96259.44;;;14.13;76.46
56038;BME280;41907;47.848;9.000;2023-05-27T01:18:59;96260.06;;;14.10;76.75
56038;BME280;41907;47.848;9.000;2023-05-27T01:21:28;96250.28;;;14.06;76.27
56038;BME280;41907;47.848;9.000;2023-05-27T01:23:54;96251.69;;;14.03;76.59
56038;BME280;41907;47.848;9.000;2023-05-27T01:26:27;96254.22;;;14.00;77.18
56038;BME280;41907;47.848;9.000;2023-05-27T01:28:52;96243.66;;;13.95;76.83
56038;BME280;41907;47.848;9.000;2023-05-27T01:31:25;96240.03;;;13.91;77.09
56038;BME280;41907;47.848;9.000;2023-05-27T01:34:05;96239.84;;;13.87;77.16
56038;BME280;41907;47.848;9.000;2023-05-27T01:36:33;96238.91;;;13.83;76.92
56038;BME280;41907;47.848;9.000;2023-05-27T01:39:01;96245.38;;;13.82;76.64
56038;BME280;41907;47.848;9.000;2023-05-27T01:41:28;96243.00;;;13.81;76.79
56038;BME280;41907;47.848;9.000;2023-05-27T01:43:53;96239.22;;;13.82;77.33
56038;BME280;41907;47.848;9.000;2023-05-27T01:46:19;96240.34;;;13.72;77.31
56038;BME280;41907;47.848;9.000;2023-05-27T01:48:44;96234.34;;;13.66;77.54
56038;BME280;41907;47.848;9.000;2023-05-27T01:51:10;96243.00;;;13.63;77.55
56038;BME280;41907;47.848;9.000;2023-05-27T01:53:35;96242.53;;;13.61;78.01
56038;BME280;41907;47.848;9.000;2023-05-27T01:56:01;96233.38;;;13.62;77.88
56038;BME280;41907;47.848;9.000;2023-05-27T01:58:26;96242.03;;;13.59;78.14
56038;BME280;41907;47.848;9.000;2023-05-27T02:00:51;96248.66;;;13.53;77.82
56038;BME280;41907;47.848;9.000;2023-05-27T02:03:17;96239.69;;;13.49;78.20
56038;BME280;41907;47.848;9.000;2023-05-27T02:05:42;96236.38;;;13.52;78.40
56038;BME280;41907;47.848;9.000;2023-05-27T02:08:08;96233.19;;;13.41;78.30
56038;BME280;41907;47.848;9.000;2023-05-27T02:10:33;96237.75;;;13.41;78.32
56038;BME280;41907;47.848;9.000;2023-05-27T02:12:58;96240.28;;;13.37;78.38
56038;BME280;41907;47.848;9.000;2023-05-27T02:15:23;96238.22;;;13.34;78.81
56038;BME280;41907;47.848;9.000;2023-05-27T02:17:49;96246.75;;;13.36;78.32
56038;BME280;41907;47.848;9.000;2023-05-27T02:20:20;96242.31;;;13.32;78.54
56038;BME280;41907;47.848;9.000;2023-05-27T02:22:45;96243.91;;;13.33;79.34
56038;BME280;41907;47.848;9.000;2023-05-27T02:25:10;96239.34;;;13.33;79.30
56038;BME280;41907;47.848;9.000;2023-05-27T02:27:35;96244.38;;;13.26;79.28
56038;BME280;41907;47.848;9.000;2023-05-27T02:30:01;96239.31;;;13.25;78.89
56038;BME280;41907;47.848;9.000;2023-05-27T02:32:26;96237.59;;;13.29;78.78
56038;BME280;41907;47.848;9.000;2023-05-27T02:34:51;96244.84;;;13.28;78.42
56038;BME280;41907;47.848;9.000;2023-05-27T02:37:16;96237.25;;;13.22;79.02
56038;BME280;41907;47.848;9.000;2023-05-27T02:39:42;96238.50;;;13.16;79.17
56038;BME280;41907;47.848;9.000;2023-05-27T02:42:07;96242.16;;;13.20;80.31
56038;BME280;41907;47.848;9.000;2023-05-27T02:44:33;96240.69;;;13.14;79.38
56038;BME280;41907;47.848;9.000;2023-05-27T02:46:58;96243.72;;;13.21;79.23
56038;BME280;41907;47.848;9.000;2023-05-27T02:49:23;96241.06;;;13.21;79.05
56038;BME280;41907;47.848;9.000;2023-05-27T02:51:48;96245.44;;;13.17;79.03
56038;BME280;41907;47.848;9.000;2023-05-27T02:54:14;96240.97;;;13.12;79.76
56038;BME280;41907;47.848;9.000;2023-05-27T02:56:39;96239.03;;;12.95;79.96
56038;BME280;41907;47.848;9.000;2023-05-27T02:59:05;96245.19;;;12.96;80.05
56038;BME280;41907;47.848;9.000;2023-05-27T03:01:30;96243.78;;;12.98;81.76
56038;BME280;41907;47.848;9.000;2023-05-27T03:03:55;96245.50;;;13.03;81.35
56038;BME280;41907;47.848;9.000;2023-05-27T03:06:21;96241.88;;;12.90;80.76
56038;BME280;41907;47.848;9.000;2023-05-27T03:08:46;96240.50;;;13.01;82.41
56038;BME280;41907;47.848;9.000;2023-05-27T03:11:12;96235.72;;;12.90;80.72
56038;BME280;41907;47.848;9.000;2023-05-27T03:13:37;96234.22;;;12.75;80.75
56038;BME280;41907;47.848;9.000;2023-05-27T03:16:02;96238.94;;;12.70;81.45
56038;BME280;41907;47.848;9.000;2023-05-27T03:18:27;96241.13;;;12.67;81.40
56038;BME280;41907;47.848;9.000;2023-05-27T03:20:53;96237.16;;;12.65;82.21
56038;BME280;41907;47.848;9.000;2023-05-27T03:23:18;96232.56;;;12.57;82.10
56038;BME280;41907;47.848;9.000;2023-05-27T03:25:43;96246.13;;;12.60;82.18
56038;BME280;41907;47.848;9.000;2023-05-27T03:28:09;96238.91;;;12.61;81.57
56038;BME280;41907;47.848;9.000;2023-05-27T03:30:35;96247.03;;;12.56;81.84
56038;BME280;41907;47.848;9.000;2023-05-27T03:33:01;96244.84;;;12.58;81.77
56038;BME280;41907;47.848;9.000;2023-05-27T03:35:26;96242.47;;;12.56;81.56
56038;BME280;41907;47.848;9.000;2023-05-27T03:37:51;96247.84;;;12.56;82.44
56038;BME280;41907;47.848;9.000;2023-05-27T03:40:16;96236.84;;;12.58;81.33
56038;BME280;41907;47.848;9.000;2023-05-27T03:42:42;96244.69;;;12.54;82.21
56038;BME280;41907;47.848;9.000;2023-05-27T03:45:07;96244.41;;;12.64;82.04
56038;BME280;41907;47.848;9.000;2023-05-27T03:47:32;96241.56;;;12.61;81.80
56038;BME280;41907;47.848;9.000;2023-05-27T03:49:59;96239.69;;;12.61;81.79
56038;BME280;41907;47.848;9.000;2023-05-27T03:52:24;96243.16;;;12.62;81.50
56038;BME280;41907;47.848;9.000;2023-05-27T03:54:50;96238.09;;;12.60;82.06
56038;BME280;41907;47.848;9.000;2023-05-27T03:57:15;96235.66;;;12.73;81.62
56038;BME280;41907;47.848;9.000;2023-05-27T03:59:41;96245.88;;;12.71;82.32
56038;BME280;41907;47.848;9.000;2023-05-27T04:02:06;96238.63;;;12.71;81.72
56038;BME280;41907;47.848;9.000;2023-05-27T04:04:31;96238.78;;;12.75;82.27
56038;BME280;41907;47.848;9.000;2023-05-27T04:06:56;96237.66;;;12.67;81.00
56038;BME280;41907;47.848;9.000;2023-05-27T04:09:21;96238.84;;;12.83;80.62
56038;BME280;41907;47.848;9.000;2023-05-27T04:11:47;96246.03;;;12.74;80.08
56038;BME280;41907;47.848;9.000;2023-05-27T04:14:12;96238.38;;;12.81;79.77
56038;BME280;41907;47.848;9.000;2023-05-27T04:16:37;96236.84;;;12.97;80.65
56038;BME280;41907;47.848;9.000;2023-05-27T04:19:03;96236.56;;;13.08;78.58
56038;BME280;41907;47.848;9.000;2023-05-27T04:21:28;96247.09;;;13.78;75.72
56038;BME280;41907;47.848;9.000;2023-05-27T04:23:54;96246.94;;;14.26;73.93
56038;BME280;41907;47.848;9.000;2023-05-27T04:26:19;96239.59;;;14.78;70.01
56038;BME280;41907;47.848;9.000;2023-05-27T04:28:45;96233.19;;;15.80;67.56
56038;BME280;41907;47.848;9.000;2023-05-27T04:31:11;96240.97;;;16.80;61.14
56038;BME280;41907;47.848;9.000;2023-05-27T04:33:40;96235.59;;;17.53;57.55
56038;BME280;41907;47.848;9.000;2023-05-27T04:36:05;96231.13;;;18.25;54.10
56038;BME280;41907;47.848;9.000;2023-05-27T04:38:31;96236.22;;;18.70;51.98
56038;BME280;41907;47.848;9.000;2023-05-27T04:40:56;96235.47;;;19.01;50.82
56038;BME280;41907;47.848;9.000;2023-05-27T04:43:22;96238.16;;;19.32;50.20
56038;BME280;41907;47.848;9.000;2023-05-27T04:45:48;96236.50;;;19.79;48.30
56038;BME280;41907;47.848;9.000;2023-05-27T04:48:13;96232.69;;;20.18;47.83
56038;BME280;41907;47.848;9.000;2023-05-27T04:50:39;96235.88;;;20.62;46.88
56038;BME280;41907;47.848;9.000;2023-05-27T04:53:05;96240.13;;;20.83;44.55
56038;BME280;41907;47.848;9.000;2023-05-27T04:55:31;96231.44;;;20.96;45.02
56038;BME280;41907;47.848;9.000;2023-05-27T04:57:57;96231.53;;;20.58;45.27
56038;BME280;41907;47.848;9.000;2023-05-27T05:00:22;96242.16;;;21.35;43.71
56038;BME280;41907;47.848;9.000;2023-05-27T05:02:49;96245.00;;;21.68;42.70
56038;BME280;41907;47.848;9.000;2023-05-27T05:05:14;96241.41;;;22.17;41.72
56038;BME280;41907;47.848;9.000;2023-05-27T05:07:40;96239.06;;;22.49;41.58
56038;BME280;41907;47.848;9.000;2023-05-27T05:10:09;96245.28;;;22.83;41.08
56038;BME280;41907;47.848;9.000;2023-05-27T05:12:36;96238.19;;;23.15;39.55
56038;BME280;41907;47.848;9.000;2023-05-27T05:15:02;96243.81;;;23.36;39.31
56038;BME280;41907;47.848;9.000;2023-05-27T05:17:27;96240.19;;;23.73;40.02
56038;BME280;41907;47.848;9.000;2023-05-27T05:19:52;96243.81;;;23.98;37.47
56038;BME280;41907;47.848;9.000;2023-05-27T05:22:18;96246.97;;;23.97;38.37
56038;BME280;41907;47.848;9.000;2023-05-27T05:24:47;96249.09;;;23.19;38.81
56038;BME280;41907;47.848;9.000;2023-05-27T05:27:12;96253.59;;;22.63;39.17
56038;BME280;41907;47.848;9.000;2023-05-27T05:29:38;96253.13;;;22.54;40.25
56038;BME280;41907;47.848;9.000;2023-05-27T05:32:03;96253.72;;;23.15;39.09
56038;BME280;41907;47.848;9.000;2023-05-27T05:34:29;96254.56;;;23.19;38.48
56038;BME280;41907;47.848;9.000;2023-05-27T05:36:54;96257.75;;;23.31;38.44
56038;BME280;41907;47.848;9.000;2023-05-27T05:39:19;96261.13;;;23.62;38.68
56038;BME280;41907;47.848;9.000;2023-05-27T05:41:45;96256.31;;;24.03;37.44
56038;BME280;41907;47.848;9.000;2023-05-27T05:44:11;96257.72;;;23.79;37.43
56038;BME280;41907;47.848;9.000;2023-05-27T05:46:36;96252.13;;;24.20;38.56
56038;BME280;41907;47.848;9.000;2023-05-27T05:49:01;96258.56;;;24.84;36.52
56038;BME280;41907;47.848;9.000;2023-05-27T05:51:26;96256.22;;;24.72;35.92
56038;BME280;41907;47.848;9.000;2023-05-27T05:53:52;96247.66;;;24.77;36.47
56038;BME280;41907;47.848;9.000;2023-05-27T05:56:17;96250.53;;;24.19;36.60
56038;BME280;41907;47.848;9.000;2023-05-27T05:58:42;96257.00;;;23.34;38.11
56038;BME280;41907;47.848;9.000;2023-05-27T06:01:07;96253.06;;;24.56;37.74
56038;BME280;41907;47.848;9.000;2023-05-27T06:03:32;96252.81;;;25.28;35.25
56038;BME280;41907;47.848;9.000;2023-05-27T06:05:58;96260.22;;;25.70;36.52
56038;BME280;41907;47.848;9.000;2023-05-27T06:08:23;96257.50;;;25.84;34.97
56038;BME280;41907;47.848;9.000;2023-05-27T06:10:48;96264.88;;;26.02;34.92
56038;BME280;41907;47.848;9.000;2023-05-27T06:13:14;96264.53;;;25.71;35.94
56038;BME280;41907;47.848;9.000;2023-05-27T06:15:39;96264.16;;;25.66;36.20
56038;BME280;41907;47.848;9.000;2023-05-27T06:18:04;96261.38;;;25.76;35.86
56038;BME280;41907;47.848;9.000;2023-05-27T06:20:30;96255.84;;;24.84;35.81
56038;BME280;41907;47.848;9.000;2023-05-27T06:22:55;96254.66;;;24.74;38.00
56038;BME280;41907;47.848;9.000;2023-05-27T06:25:20;96249.59;;;24.76;36.94
56038;BME280;41907;47.848;9.000;2023-05-27T06:27:46;96248.00;;;24.58;37.60
56038;BME280;41907;47.848;9.000;2023-05-27T06:30:11;96249.97;;;23.81;39.28
56038;BME280;41907;47.848;9.000;2023-05-27T06:32:36;96249.91;;;24.43;37.69
56038;BME280;41907;47.848;9.000;2023-05-27T06:35:02;96254.56;;;23.70;39.40
56038;BME280;41907;47.848;9.000;2023-05-27T06:37:27;96256.94;;;23.27;40.42
56038;BME280;41907;47.848;9.000;2023-05-27T06:39:52;96252.53;;;23.60;40.53
56038;BME280;41907;47.848;9.000;2023-05-27T06:42:18;96250.22;;;23.58;40.03
56038;BME280;41907;47.848;9.000;2023-05-27T06:44:44;96245.31;;;23.30;41.48
56038;BME280;41907;47.848;9.000;2023-05-27T06:47:09;96244.72;;;23.07;41.19
56038;BME280;41907;47.848;9.000;2023-05-27T06:49:35;96249.00;;;22.34;43.56
56038;BME280;41907;47.848;9.000;2023-05-27T06:52:01;96236.06;;;22.24;43.61
56038;BME280;41907;47.848;9.000;2023-05-27T06:54:26;96240.56;;;22.46;44.23
56038;BME280;41907;47.848;9.000;2023-05-27T06:56:51;96233.38;;;22.61;42.89
56038;BME280;41907;47.848;9.000;2023-05-27T06:59:16;96241.38;;;22.13;43.71
56038;BME280;41907;47.848;9.000;2023-05-27T07:01:41;96245.97;;;21.83;44.60
56038;BME280;41907;47.848;9.000;2023-05-27T07:04:07;96240.03;;;21.47;45.75
56038;BME280;41907;47.848;9.000;2023-05-27T07:06:32;96235.31;;;21.41;45.99
56038;BME280;41907;47.848;9.000;2023-05-27T07:08:57;96241.19;;;21.46;46.85
56038;BME280;41907;47.848;9.000;2023-05-27T07:11:22;96238.31;;;21.36;47.96
56038;BME280;41907;47.848;9.000;2023-05-27T07:13:48;96236.34;;;21.59;47.43
56038;BME280;41907;47.848;9.000;2023-05-27T07:16:13;96234.13;;;21.95;47.13
56038;BME280;41907;47.848;9.000;2023-05-27T07:18:38;96234.81;;;22.18;46.02
56038;BME280;41907;47.848;9.000;2023-05-27T07:21:04;96226.00;;;22.28;45.23
56038;BME280;41907;47.848;9.000;2023-05-27T07:23:29;96227.56;;;22.29;46.90
56038;BME280;41907;47.848;9.000;2023-05-27T07:25:54;96231.25;;;21.84;45.88
56038;BME280;41907;47.848;9.000;2023-05-27T07:28:19;96227.22;;;22.01;46.13
56038;BME280;41907;47.848;9.000;2023-05-27T07:30:45;96235.81;;;21.76;46.34
56038;BME280;41907;47.848;9.000;2023-05-27T07:33:10;96232.72;;;21.51;47.52
56038;BME280;41907;47.848;9.000;2023-05-27T07:35:35;96223.03;;;21.50;47.60
56038;BME280;41907;47.848;9.000;2023-05-27T07:38:00;96222.41;;;21.61;47.85
56038;BME280;41907;47.848;9.000;2023-05-27T07:40:27;96224.94;;;22.03;47.28
56038;BME280;41907;47.848;9.000;2023-05-27T07:42:52;96216.84;;;22.06;46.08
56038;BME280;41907;47.848;9.000;2023-05-27T07:45:18;96224.34;;;21.90;46.75
56038;BME280;41907;47.848;9.000;2023-05-27T07:47:43;96218.47;;;21.84;47.52
56038;BME280;41907;47.848;9.000;2023-05-27T07:50:08;96216.91;;;21.57;48.07
56038;BME280;41907;47.848;9.000;2023-05-27T07:52:34;96212.16;;;21.77;47.29
56038;BME280;41907;47.848;9.000;2023-05-27T07:54:59;96210.13;;;21.70;49.99
56038;BME280;41907;47.848;9.000;2023-05-27T07:57:24;96209.84;;;22.05;47.03
56038;BME280;41907;47.848;9.000;2023-05-27T07:59:50;96205.50;;;22.01;46.98
56038;BME280;41907;47.848;9.000;2023-05-27T08:02:15;96203.41;;;21.90;48.03
56038;BME280;41907;47.848;9.000;2023-05-27T08:04:40;96208.91;;;22.27;47.57
56038;BME280;41907;47.848;9.000;2023-05-27T08:07:08;96203.47;;;22.24;48.26
56038;BME280;41907;47.848;9.000;2023-05-27T08:09:34;96194.16;;;22.25;47.27
56038;BME280;41907;47.848;9.000;2023-05-27T08:11:59;96188.13;;;22.09;47.53
56038;BME280;41907;47.848;9.000;2023-05-27T08:14:25;96199.06;;;22.12;47.93
56038;BME280;41907;47.848;9.000;2023-05-27T08:16:52;96189.03;;;21.90;47.52
56038;BME280;41907;47.848;9.000;2023-05-27T08:19:17;96192.88;;;22.15;48.70
56038;BME280;41907;47.848;9.000;2023-05-27T08:21:43;96198.31;;;22.15;47.43
56038;BME280;41907;47.848;9.000;2023-05-27T08:24:08;96191.69;;;22.13;47.55
56038;BME280;41907;47.848;9.000;2023-05-27T08:26:33;96196.59;;;22.37;48.44
56038;BME280;41907;47.848;9.000;2023-05-27T08:28:58;96183.00;;;22.34;47.95
56038;BME280;41907;47.848;9.000;2023-05-27T08:31:23;96193.50;;;22.35;49.21
56038;BME280;41907;47.848;9.000;2023-05-27T08:33:49;96181.31;;;22.59;47.45
56038;BME280;41907;47.848;9.000;2023-05-27T08:36:14;96187.00;;;22.84;48.83
56038;BME280;41907;47.848;9.000;2023-05-27T08:38:41;96182.97;;;23.15;48.24
56038;BME280;41907;47.848;9.000;2023-05-27T08:41:06;96183.66;;;23.52;47.48
56038;BME280;41907;47.848;9.000;2023-05-27T08:43:32;96179.16;;;22.75;46.71
56038;BME280;41907;47.848;9.000;2023-05-27T08:45:59;96179.25;;;22.86;47.45
56038;BME280;41907;47.848;9.000;2023-05-27T08:48:25;96180.75;;;23.27;46.29
56038;BME280;41907;47.848;9.000;2023-05-27T08:50:50;96175.72;;;23.29;45.64
56038;BME280;41907;47.848;9.000;2023-05-27T08:53:15;96172.28;;;23.40;45.56
56038;BME280;41907;47.848;9.000;2023-05-27T08:55:42;96169.16;;;23.37;45.52
56038;BME280;41907;47.848;9.000;2023-05-27T08:58:08;96169.06;;;23.27;45.79
56038;BME280;41907;47.848;9.000;2023-05-27T09:00:34;96168.47;;;23.51;46.21
56038;BME280;41907;47.848;9.000;2023-05-27T09:02:59;96161.22;;;23.73;44.57
56038;BME280;41907;47.848;9.000;2023-05-27T09:05:25;96161.19;;;23.69;45.30
56038;BME280;41907;47.848;9.000;2023-05-27T09:07:51;96159.31;;;23.84;46.10
56038;BME280;41907;47.848;9.000;2023-05-27T09:10:16;96155.47;;;23.96;45.08
56038;BME280;41907;47.848;9.000;2023-05-27T09:12:44;96159.03;;;24.14;44.75
56038;BME280;41907;47.848;9.000;2023-05-27T09:15:10;96160.31;;;24.45;42.60
56038;BME280;41907;47.848;9.000;2023-05-27T09:17:39;96158.34;;;23.48;42.19
56038;BME280;41907;47.848;9.000;2023-05-27T09:20:04;96156.06;;;23.02;44.58
56038;BME280;41907;47.848;9.000;2023-05-27T09:22:32;96149.50;;;23.07;44.15
56038;BME280;41907;47.848;9.000;2023-05-27T09:24:57;96147.84;;;23.50;48.27
56038;BME280;41907;47.848;9.000;2023-05-27T09:27:30;96143.28;;;23.65;45.75
56038;BME280;41907;47.848;9.000;2023-05-27T09:29:56;96143.44;;;23.28;43.30
56038;BME280;41907;47.848;9.000;2023-05-27T09:32:29;96142.97;;;23.19;45.43
56038;BME280;41907;47.848;9.000;2023-05-27T09:34:55;96144.53;;;23.20;45.35
56038;BME280;41907;47.848;9.000;2023-05-27T09:37:24;96137.59;;;23.29;44.88
56038;BME280;41907;47.848;9.000;2023-05-27T09:39:51;96142.19;;;23.22;44.61
56038;BME280;41907;47.848;9.000;2023-05-27T09:42:16;96147.41;;;23.45;44.54
56038;BME280;41907;47.848;9.000;2023-05-27T09:44:41;96126.19;;;23.79;45.62
56038;BME280;41907;47.848;9.000;2023-05-27T09:47:13;96141.06;;;23.95;42.58
56038;BME280;41907;47.848;9.000;2023-05-27T09:49:40;96135.16;;;23.79;44.07
56038;BME280;41907;47.848;9.000;2023-05-27T09:52:06;96131.19;;;23.59;43.76
56038;BME280;41907;47.848;9.000;2023-05-27T09:54:34;96134.25;;;23.54;43.44
56038;BME280;41907;47.848;9.000;2023-05-27T09:57:00;96132.09;;;23.19;43.40
56038;BME280;41907;47.848;9.000;2023-05-27T09:59:26;96134.44;;;23.24;42.11
56038;BME280;41907;47.848;9.000;2023-05-27T10:01:51;96140.13;;;23.01;43.23
56038;BME280;41907;47.848;9.000;2023-05-27T10:04:18;96133.28;;;23.21;43.49
56038;BME280;41907;47.848;9.000;2023-05-27T10:06:46;96122.38;;;23.18;43.14
56038;BME280;41907;47.848;9.000;2023-05-27T10:09:11;96124.53;;;22.94;44.93
56038;BME280;41907;47.848;9.000;2023-05-27T10:11:38;96129.44;;;23.33;43.03
56038;BME280;41907;47.848;9.000;2023-05-27T10:14:05;96130.66;;;23.43;43.05
56038;BME280;41907;47.848;9.000;2023-05-27T10:16:31;96123.41;;;23.61;42.90
56038;BME280;41907;47.848;9.000;2023-05-27T10:18:57;96121.28;;;24.20;42.69
56038;BME280;41907;47.848;9.000;2023-05-27T10:21:23;96128.34;;;24.24;42.37
56038;BME280;41907;47.848;9.000;2023-05-27T10:23:58;96122.19;;;24.63;42.44
56038;BME280;41907;47.848;9.000;2023-05-27T10:29:34;96129.91;;;24.29;41.84
56038;BME280;41907;47.848;9.000;2023-05-27T10:31:50;96127.94;;;24.22;41.75
56038;BME280;41907;47.848;9.000;2023-05-27T10:34:16;96127.28;;;23.56;42.23
56038;BME280;41907;47.848;9.000;2023-05-27T10:36:43;96120.16;;;23.41;46.77
56038;BME280;41907;47.848;9.000;2023-05-27T10:41:43;96111.06;;;23.85;43.67
56038;BME280;41907;47.848;9.000;2023-05-27T10:44:09;96112.63;;;23.89;45.03
56038;BME280;41907;47.848;9.000;2023-05-27T10:46:38;96110.75;;;24.11;42.71
56038;BME280;41907;47.848;9.000;2023-05-27T10:49:09;96111.50;;;24.08;42.39
56038;BME280;41907;47.848;9.000;2023-05-27T10:51:34;96109.59;;;24.12;43.65
56038;BME280;41907;47.848;9.000;2023-05-27T10:54:02;96104.13;;;24.05;42.93
56038;BME280;41907;47.848;9.000;2023-05-27T10:56:28;96102.56;;;24.07;45.23
56038;BME280;41907;47.848;9.000;2023-05-27T10:58:53;96109.22;;;24.21;41.80
56038;BME280;41907;47.848;9.000;2023-05-27T11:01:20;96100.94;;;23.82;43.01
56038;BME280;41907;47.848;9.000;2023-05-27T11:03:48;96103.72;;;23.96;45.55
56038;BME280;41907;47.848;9.000;2023-05-27T11:06:14;96104.53;;;24.18;44.33
56038;BME280;41907;47.848;9.000;2023-05-27T11:08:42;96093.56;;;23.89;42.75
56038;BME280;41907;47.848;9.000;2023-05-27T11:11:08;96097.84;;;23.87;44.60
56038;BME280;41907;47.848;9.000;2023-05-27T11:13:34;96100.22;;;24.02;43.16
56038;BME280;41907;47.848;9.000;2023-05-27T11:16:00;96092.47;;;24.11;41.86
56038;BME280;41907;47.848;9.000;2023-05-27T11:18:33;96086.22;;;24.07;43.55
56038;BME280;41907;47.848;9.000;2023-05-27T11:20:58;96088.22;;;24.35;42.55
56038;BME280;41907;47.848;9.000;2023-05-27T11:23:32;96090.59;;;24.47;41.82
56038;BME280;41907;47.848;9.000;2023-05-27T11:25:58;96080.09;;;24.50;41.17
56038;BME280;41907;47.848;9.000;2023-05-27T11:28:23;96069.88;;;24.04;42.04
56038;BME280;41907;47.848;9.000;2023-05-27T11:30:48;96074.88;;;23.91;43.12
56038;BME280;41907;47.848;9.000;2023-05-27T11:33:14;96070.25;;;24.02;42.65
56038;BME280;41907;47.848;9.000;2023-05-27T11:35:39;96064.00;;;23.95;43.07
56038;BME280;41907;47.848;9.000;2023-05-27T11:38:05;96068.72;;;24.12;41.56
56038;BME280;41907;47.848;9.000;2023-05-27T11:40:34;96059.69;;;23.76;42.30
56038;BME280;41907;47.848;9.000;2023-05-27T11:43:00;96060.50;;;23.98;43.97
56038;BME280;41907;47.848;9.000;2023-05-27T11:45:27;96065.59;;;24.21;41.52
56038;BME280;41907;47.848;9.000;2023-05-27T11:47:52;96064.88;;;24.34;43.25
56038;BME280;41907;47.848;9.000;2023-05-27T11:50:19;96061.38;;;24.30;41.49
56038;BME280;41907;47.848;9.000;2023-05-27T11:52:54;96054.75;;;24.42;42.43
56038;BME280;41907;47.848;9.000;2023-05-27T11:55:20;96042.69;;;24.39;39.79
56038;BME280;41907;47.848;9.000;2023-05-27T11:57:45;96054.31;;;24.15;41.69
56038;BME280;41907;47.848;9.000;2023-05-27T12:00:11;96046.16;;;24.15;42.29
56038;BME280;41907;47.848;9.000;2023-05-27T12:02:37;96045.78;;;24.38;42.99
56038;BME280;41907;47.848;9.000;2023-05-27T12:05:02;96044.25;;;24.69;43.96
56038;BME280;41907;47.848;9.000;2023-05-27T12:07:27;96049.69;;;24.76;41.38
56038;BME280;41907;47.848;9.000;2023-05-27T12:09:52;96051.66;;;24.33;41.16
56038;BME280;41907;47.848;9.000;2023-05-27T12:12:21;96044.63;;;24.25;41.56
56038;BME280;41907;47.848;9.000;2023-05-27T12:14:46;96036.78;;;24.20;42.79
56038;BME280;41907;47.848;9.000;2023-05-27T12:17:11;96039.56;;;24.30;42.68
56038;BME280;41907;47.848;9.000;2023-05-27T12:19:36;96033.22;;;23.77;41.96
56038;BME280;41907;47.848;9.000;2023-05-27T12:22:02;96037.59;;;24.27;41.57
56038;BME280;41907;47.848;9.000;2023-05-27T12:24:27;96029.84;;;24.33;41.85
56038;BME280;41907;47.848;9.000;2023-05-27T12:26:52;96029.00;;;23.97;41.01
56038;BME280;41907;47.848;9.000;2023-05-27T12:29:18;96029.38;;;24.02;43.01
56038;BME280;41907;47.848;9.000;2023-05-27T12:31:43;96020.78;;;23.90;41.40
56038;BME280;41907;47.848;9.000;2023-05-27T12:34:08;96015.72;;;23.85;43.31
56038;BME280;41907;47.848;9.000;2023-05-27T12:36:33;96018.13;;;24.15;41.73
56038;BME280;41907;47.848;9.000;2023-05-27T12:38:59;96015.75;;;24.17;40.95
56038;BME280;41907;47.848;9.000;2023-05-27T12:41:24;96005.25;;;24.08;41.56
56038;BME280;41907;47.848;9.000;2023-05-27T12:43:51;96009.13;;;24.03;41.57
56038;BME280;41907;47.848;9.000;2023-05-27T12:46:16;96001.00;;;24.32;40.96
56038;BME280;41907;47.848;9.000;2023-05-27T12:48:41;95999.44;;;24.38;42.23
56038;BME280;41907;47.848;9.000;2023-05-27T12:51:07;96001.41;;;24.23;40.79
56038;BME280;41907;47.848;9.000;2023-05-27T12:53:32;95997.50;;;24.24;42.64
56038;BME280;41907;47.848;9.000;2023-05-27T12:55:57;95993.19;;;24.13;43.11
56038;BME280;41907;47.848;9.000;2023-05-27T12:58:23;95999.81;;;24.26;42.73